Airport View

Enter AWOS ICAO identifier for current METAR.

ex. KFNL

KDYS 191838Z AUTO 23008KT 10SM FEW065 SCT130 BKN160 BKN180 33/18 A2980 RMK AO2 DZB36E38 SLP043 PNO $

19 Jun 2019 18:53

Other Area AWOS: KABI - KSWW - KCOM - KGZN

TAF KDYS 191400Z 1914/2020 17009KT 9999 FEW200 QNH2985INS BECMG 1914/1915 22012G18KT 9999 FEW080 FEW200 QNH2970INS TEMPO 1922/2000 27010G15KT VCTS BKN080CB BECMG 2000/2001 VRB06KT 9999 FEW150 QNH2972INS BECMG 2013/2014 21012G18KT 9999 FEW180 QNH2976INS TX37/1921Z TN22/2012Z